createdAt,value
2022-10-11T00:00:09.867Z,5.55
2022-10-11T00:02:37.125Z,5.47
2022-10-11T00:05:04.416Z,5.20
2022-10-11T00:07:31.460Z,4.55
2022-10-11T00:09:58.729Z,5.40
2022-10-11T00:12:25.700Z,5.78
2022-10-11T00:14:52.672Z,4.82
2022-10-11T00:17:19.972Z,6.12
2022-10-11T00:19:46.948Z,5.60
2022-10-11T00:22:14.193Z,6.50
2022-10-11T00:24:41.520Z,5.53
2022-10-11T00:27:08.528Z,6.20
2022-10-11T00:29:37.840Z,6.10
2022-10-11T00:32:05.234Z,5.45
2022-10-11T00:34:32.244Z,5.65
2022-10-11T00:36:59.203Z,5.97
2022-10-11T00:39:26.579Z,5.72
2022-10-11T00:41:53.677Z,5.82
2022-10-11T00:44:23.741Z,5.78
2022-10-11T00:47:13.389Z,5.47
2022-10-11T00:49:43.851Z,5.85
2022-10-11T00:52:31.871Z,5.75
2022-10-11T00:55:13.044Z,5.43
2022-10-11T00:57:44.430Z,6.30
2022-10-11T01:00:13.106Z,5.70
2022-10-11T01:02:41.110Z,5.35
2022-10-11T01:05:28.725Z,5.30
2022-10-11T01:07:58.779Z,6.30
2022-10-11T01:10:26.887Z,6.07
2022-10-11T01:13:19.582Z,5.70
2022-10-11T01:16:09.569Z,5.75
2022-10-11T01:19:30.775Z,5.78
2022-10-11T01:22:06.039Z,6.65
2022-10-11T01:24:57.765Z,6.20
2022-10-11T01:27:31.012Z,6.57
2022-10-11T01:30:05.842Z,5.32
2022-10-11T01:33:04.849Z,6.80
2022-10-11T01:52:42.499Z,6.68
2022-10-11T02:04:33.517Z,5.95
2022-10-11T02:07:06.253Z,6.05
2022-10-11T02:09:38.438Z,5.87
2022-10-11T02:12:09.232Z,6.60
2022-10-11T02:14:40.624Z,6.43
2022-10-11T02:17:11.889Z,5.90
2022-10-11T02:19:42.990Z,6.20
2022-10-11T02:22:16.024Z,6.15
2022-10-11T02:24:46.995Z,6.10
2022-10-11T02:27:14.263Z,6.20
2022-10-11T02:29:42.788Z,6.35
2022-10-11T02:32:10.828Z,6.18
2022-10-11T02:34:47.641Z,6.15
2022-10-11T02:37:18.111Z,6.80
2022-10-11T02:39:48.838Z,5.72
2022-10-11T02:42:26.448Z,5.80
2022-10-11T02:45:02.814Z,6.00
2022-10-11T02:47:31.622Z,5.87
2022-10-11T02:49:59.845Z,6.18
2022-10-11T02:52:26.845Z,6.53
2022-10-11T02:54:54.167Z,6.40
2022-10-11T02:57:21.272Z,6.45
2022-10-11T02:59:48.293Z,5.53
2022-10-11T03:02:15.566Z,5.60
2022-10-11T03:04:42.601Z,6.32
2022-10-11T03:07:09.582Z,5.95
2022-10-11T03:09:36.858Z,5.78
2022-10-11T03:12:04.068Z,5.53
2022-10-11T03:14:31.036Z,5.97
2022-10-11T03:17:17.310Z,6.90
2022-10-11T03:19:45.350Z,6.43
2022-10-11T03:22:12.629Z,6.55
2022-10-11T03:24:39.660Z,6.30
2022-10-11T03:27:06.670Z,6.20
2022-10-11T03:29:33.961Z,7.00
2022-10-11T03:32:00.957Z,6.25
2022-10-11T03:34:28.151Z,7.28
2022-10-11T03:36:55.474Z,6.62
2022-10-11T03:39:22.766Z,6.72
2022-10-11T03:41:49.809Z,7.40
2022-10-11T03:44:17.104Z,6.68
2022-10-11T03:46:44.108Z,6.75
2022-10-11T03:49:11.233Z,7.90
2022-10-11T03:51:38.564Z,7.18
2022-10-11T03:54:05.584Z,8.10
2022-10-11T03:56:32.655Z,7.30
2022-10-11T03:58:59.953Z,7.72
2022-10-11T04:01:27.009Z,7.10
2022-10-11T04:03:57.585Z,7.10
2022-10-11T04:06:24.594Z,7.68
2022-10-11T04:08:51.562Z,7.65
2022-10-11T04:11:18.858Z,7.70
2022-10-11T04:13:45.838Z,8.25
2022-10-11T04:16:12.896Z,7.72
2022-10-11T04:18:40.187Z,7.25
2022-10-11T04:21:07.234Z,7.22
2022-10-11T04:23:34.562Z,7.00
2022-10-11T04:26:06.610Z,7.10
2022-10-11T04:28:34.464Z,7.30
2022-10-11T04:31:04.189Z,7.22
2022-10-11T04:33:31.264Z,8.20
2022-10-11T04:35:58.367Z,10.35
2022-10-11T04:38:25.800Z,6.68
2022-10-11T04:40:53.230Z,6.90
2022-10-11T04:43:20.462Z,6.70
2022-10-11T04:45:48.488Z,6.28
2022-10-11T04:48:17.323Z,6.15
2022-10-11T04:50:44.931Z,5.93
2022-10-11T04:53:16.878Z,6.03
2022-10-11T04:55:43.866Z,6.43
2022-10-11T04:58:10.875Z,6.97
2022-10-11T05:00:38.218Z,6.90
2022-10-11T05:03:05.266Z,6.53
2022-10-11T05:05:32.246Z,6.00
2022-10-11T05:07:59.511Z,6.47
2022-10-11T05:10:26.466Z,6.28
2022-10-11T05:12:53.471Z,6.35
2022-10-11T05:15:20.801Z,8.10
2022-10-11T05:17:47.796Z,7.12
2022-10-11T05:20:14.911Z,6.53
2022-10-11T05:22:42.241Z,7.45
2022-10-11T05:25:09.367Z,6.78
2022-10-11T05:27:36.463Z,7.50
2022-10-11T05:30:05.246Z,7.93
2022-10-11T05:32:32.371Z,8.02
2022-10-11T05:34:59.359Z,6.47
2022-10-11T05:37:26.709Z,6.45
2022-10-11T05:39:53.986Z,7.10
2022-10-11T05:42:20.987Z,6.53
2022-10-11T05:44:48.275Z,6.95
2022-10-11T05:47:15.256Z,9.80
2022-10-11T05:49:42.453Z,7.90
2022-10-11T05:52:10.914Z,7.25
2022-10-11T05:54:37.933Z,7.60
2022-10-11T05:57:04.948Z,7.57
2022-10-11T05:59:32.367Z,6.75
2022-10-11T06:01:59.373Z,7.35
2022-10-11T06:04:27.038Z,6.70
2022-10-11T06:06:54.101Z,7.35
2022-10-11T06:09:21.140Z,7.45
2022-10-11T06:11:48.533Z,7.93
2022-10-11T06:14:15.498Z,7.78
2022-10-11T06:16:42.453Z,8.07
2022-10-11T06:19:09.850Z,6.78
2022-10-11T06:21:36.982Z,7.68
2022-10-11T06:24:04.497Z,7.40
2022-10-11T06:26:32.029Z,8.45
2022-10-11T06:28:59.095Z,7.30
2022-10-11T06:31:26.213Z,7.07
2022-10-11T06:33:53.512Z,7.00
2022-10-11T06:36:20.513Z,8.07
2022-10-11T06:38:47.566Z,8.02
2022-10-11T06:41:18.748Z,7.62
2022-10-11T06:43:46.301Z,6.35
2022-10-11T06:46:13.330Z,6.15
2022-10-11T06:48:42.135Z,7.22
2022-10-11T06:51:10.618Z,8.27
2022-10-11T06:53:37.916Z,7.30
2022-10-11T06:56:13.058Z,6.82
2022-10-11T06:58:40.528Z,7.03
2022-10-11T07:01:11.019Z,7.57
2022-10-11T07:03:38.101Z,7.62
2022-10-11T07:06:10.985Z,7.50
2022-10-11T07:08:38.689Z,9.02
2022-10-11T07:11:11.843Z,8.82
2022-10-11T07:13:40.115Z,7.20
2022-10-11T07:16:10.045Z,7.00
2022-10-11T07:18:37.532Z,6.90
2022-10-11T07:21:06.990Z,6.47
2022-10-11T07:23:34.487Z,6.18
2022-10-11T07:26:01.666Z,6.25
2022-10-11T07:28:30.476Z,6.60
2022-10-11T07:30:58.247Z,7.15
2022-10-11T07:33:25.328Z,7.47
2022-10-11T07:35:56.974Z,6.53
2022-10-11T07:38:23.972Z,7.43
2022-10-11T07:40:51.107Z,8.52
2022-10-11T07:43:18.489Z,6.43
2022-10-11T07:45:48.335Z,7.80
2022-10-11T07:48:15.424Z,7.03
2022-10-11T07:50:42.705Z,7.60
2022-10-11T07:53:10.008Z,7.78
2022-10-11T07:55:40.946Z,7.62
2022-10-11T07:58:12.320Z,8.15
2022-10-11T08:00:42.402Z,8.20
2022-10-11T08:03:10.504Z,7.95
2022-10-11T08:05:39.353Z,7.55
2022-10-11T08:08:06.356Z,7.60
2022-10-11T08:10:38.200Z,8.25
2022-10-11T08:13:06.146Z,8.52
2022-10-11T08:15:33.461Z,8.65
2022-10-11T08:18:00.595Z,8.90
2022-10-11T08:20:27.708Z,9.15
2022-10-11T08:23:16.651Z,7.97
2022-10-11T08:26:04.837Z,8.77
2022-10-11T08:28:52.248Z,8.75
2022-10-11T08:31:39.096Z,8.90
2022-10-11T08:34:26.532Z,8.85
2022-10-11T08:37:13.296Z,14.50
2022-10-11T08:40:01.254Z,9.73
2022-10-11T08:42:54.071Z,10.60
2022-10-11T08:45:50.861Z,10.65
2022-10-11T08:48:49.319Z,12.60
2022-10-11T08:51:48.546Z,10.27
2022-10-11T08:54:35.624Z,9.73
2022-10-11T08:57:05.440Z,10.88
2022-10-11T08:59:44.723Z,9.15
2022-10-11T09:02:17.302Z,10.18
2022-10-11T09:04:50.430Z,10.90
2022-10-11T09:07:32.887Z,10.10
2022-10-11T09:10:11.983Z,10.65
2022-10-11T09:13:02.008Z,10.60
2022-10-11T09:15:34.787Z,10.98
2022-10-11T09:18:42.969Z,10.68
2022-10-11T09:21:30.948Z,9.90
2022-10-11T09:24:17.354Z,10.60
2022-10-11T09:27:09.397Z,9.93
2022-10-11T09:29:48.820Z,10.10
2022-10-11T09:32:23.521Z,11.50
2022-10-11T09:34:59.732Z,10.00
2022-10-11T09:37:32.532Z,10.73
2022-10-11T09:40:22.653Z,11.32
2022-10-11T09:42:49.646Z,11.23
2022-10-11T09:45:19.763Z,11.10
2022-10-11T09:47:49.278Z,10.82
2022-10-11T09:50:19.976Z,10.18
2022-10-11T09:52:56.472Z,11.18
2022-10-11T09:55:32.971Z,11.35
2022-10-11T09:58:00.519Z,11.00
2022-10-11T10:00:32.298Z,12.35
2022-10-11T10:03:02.659Z,11.73
2022-10-11T10:05:35.537Z,12.02
2022-10-11T10:08:09.265Z,12.07
2022-10-11T10:10:38.464Z,11.82
2022-10-11T10:13:18.810Z,11.85
2022-10-11T10:15:48.445Z,11.45
2022-10-11T10:18:24.521Z,11.98
2022-10-11T10:20:54.895Z,12.85
2022-10-11T10:23:31.309Z,12.45
2022-10-11T10:26:21.085Z,12.13
2022-10-11T10:29:09.617Z,12.68
2022-10-11T10:32:08.767Z,12.40
2022-10-11T10:34:31.752Z,12.93
2022-10-11T10:37:48.066Z,12.00
2022-10-11T10:40:25.640Z,12.25
2022-10-11T10:42:52.721Z,11.77
2022-10-11T10:45:22.180Z,12.45
2022-10-11T10:47:55.054Z,11.98
2022-10-11T10:50:58.696Z,11.77
2022-10-11T10:53:37.172Z,11.77
2022-10-11T10:56:11.378Z,10.75
2022-10-11T10:59:18.978Z,11.02
2022-10-11T11:02:39.195Z,10.63
2022-10-11T11:05:25.450Z,11.55
2022-10-11T11:08:24.031Z,11.93
2022-10-11T11:11:18.769Z,11.18
2022-10-11T11:13:56.947Z,11.38
2022-10-11T11:16:32.087Z,11.70
2022-10-11T11:19:14.569Z,11.73
2022-10-11T11:21:50.100Z,12.37
2022-10-11T11:24:41.429Z,12.07
2022-10-11T11:27:11.820Z,11.63
2022-10-11T11:29:49.829Z,11.52
2022-10-11T11:32:48.185Z,12.52
2022-10-11T11:35:32.211Z,12.27
2022-10-11T11:38:06.476Z,12.32
2022-10-11T11:40:39.864Z,16.65
2022-10-11T11:43:27.942Z,12.20
2022-10-11T11:45:58.237Z,11.85
2022-10-11T11:48:26.625Z,14.40
2022-10-11T11:51:01.157Z,12.70
2022-10-11T11:54:08.345Z,12.13
2022-10-11T11:56:54.037Z,14.32
2022-10-11T11:59:48.746Z,11.57
2022-10-11T12:02:47.590Z,11.75
2022-10-11T12:05:19.645Z,12.05
2022-10-11T12:08:01.200Z,12.02
2022-10-11T12:10:46.570Z,12.37
2022-10-11T12:13:32.270Z,12.27
2022-10-11T12:16:15.497Z,11.70
2022-10-11T12:18:59.792Z,11.40
2022-10-11T12:21:29.661Z,10.57
2022-10-11T12:23:59.458Z,11.32
2022-10-11T12:26:29.404Z,11.77
2022-10-11T12:29:28.399Z,11.77
2022-10-11T12:31:59.061Z,13.20
2022-10-11T12:34:50.127Z,12.18
2022-10-11T12:37:17.439Z,13.85
2022-10-11T12:39:50.400Z,12.52
2022-10-11T12:42:32.765Z,13.27
2022-10-11T12:45:30.209Z,15.88
2022-10-11T12:48:06.277Z,14.27
2022-10-11T12:50:45.248Z,12.70
2022-10-11T12:54:21.607Z,12.48
2022-10-11T12:56:44.284Z,11.40
2022-10-11T12:59:19.923Z,12.35
2022-10-11T13:01:53.342Z,11.75
2022-10-11T13:04:23.432Z,12.00
2022-10-11T13:06:56.869Z,11.52
2022-10-11T13:09:32.256Z,12.13
2022-10-11T13:12:05.037Z,11.95
2022-10-11T13:14:37.597Z,12.02
2022-10-11T13:17:07.585Z,11.25
2022-10-11T13:19:37.348Z,12.55
2022-10-11T13:22:13.381Z,13.68
2022-10-11T13:24:40.953Z,12.45
2022-10-11T13:27:28.020Z,13.85
2022-10-11T13:29:59.486Z,14.02
2022-10-11T13:32:29.654Z,12.93
2022-10-11T13:35:01.574Z,12.80
2022-10-11T13:37:29.943Z,10.90
2022-10-11T13:39:57.702Z,11.65
2022-10-11T13:42:29.950Z,11.73
2022-10-11T13:44:58.224Z,11.85
2022-10-11T13:47:27.904Z,12.27
2022-10-11T13:50:34.593Z,12.68
2022-10-11T13:53:23.377Z,11.38
2022-10-11T13:55:56.828Z,11.30
2022-10-11T14:00:58.828Z,11.00
2022-10-11T14:03:54.293Z,12.32
2022-10-11T14:06:21.552Z,10.65
2022-10-11T14:08:53.404Z,10.73
2022-10-11T14:11:38.774Z,12.75
2022-10-11T14:14:34.016Z,11.48
2022-10-11T14:17:25.969Z,11.35
2022-10-11T14:20:36.581Z,11.77
2022-10-11T14:23:03.914Z,11.88
2022-10-11T14:25:31.332Z,11.80
2022-10-11T14:27:59.248Z,11.43
2022-10-11T14:30:27.763Z,12.48
2022-10-11T14:32:57.102Z,11.52
2022-10-11T14:35:31.911Z,11.45
2022-10-11T14:37:59.404Z,11.45
2022-10-11T14:40:29.355Z,12.05
2022-10-11T14:42:56.996Z,11.38
2022-10-11T14:45:24.508Z,11.38
2022-10-11T14:47:51.938Z,12.20
2022-10-11T14:50:33.114Z,12.02
2022-10-11T14:53:00.815Z,14.70
2022-10-11T14:55:27.795Z,12.65
2022-10-11T14:57:56.294Z,13.02
2022-10-11T15:00:26.116Z,13.20
2022-10-11T15:02:54.328Z,13.70
2022-10-11T15:05:23.179Z,13.30
2022-10-11T15:07:50.968Z,13.23
2022-10-11T15:10:25.149Z,12.25
2022-10-11T15:12:54.004Z,12.90
2022-10-11T15:15:23.958Z,12.90
2022-10-11T15:17:59.093Z,12.80
2022-10-11T15:20:41.077Z,12.05
2022-10-11T15:23:09.843Z,13.10
2022-10-11T15:25:38.733Z,13.25
2022-10-11T15:28:06.246Z,13.10
2022-10-11T15:30:40.926Z,15.05
2022-10-11T15:33:09.092Z,16.85
2022-10-11T15:35:36.209Z,14.87
2022-10-11T15:38:03.456Z,15.02
2022-10-11T15:40:35.792Z,14.57
2022-10-11T15:43:03.815Z,16.30
2022-10-11T15:45:31.387Z,18.10
2022-10-11T15:47:59.178Z,15.95
2022-10-11T15:50:34.831Z,13.62
2022-10-11T15:53:07.188Z,13.48
2022-10-11T15:55:39.248Z,12.90
2022-10-11T15:58:09.829Z,12.55
2022-10-11T16:00:37.033Z,13.88
2022-10-11T16:03:04.386Z,15.20
2022-10-11T16:05:31.405Z,15.25
2022-10-11T16:07:58.698Z,15.63
2022-10-11T16:10:25.990Z,20.85
2022-10-11T16:12:52.978Z,22.52
2022-10-11T16:15:19.984Z,18.00
2022-10-11T16:17:47.380Z,15.18
2022-10-11T16:20:14.717Z,12.90
2022-10-11T16:22:42.214Z,11.88
2022-10-11T16:25:09.837Z,13.68
2022-10-11T16:27:36.885Z,13.93
2022-10-11T16:30:04.199Z,13.55
2022-10-11T16:32:33.133Z,15.93
2022-10-11T16:35:01.865Z,18.30
2022-10-11T16:37:28.921Z,16.00
2022-10-11T16:39:56.197Z,13.20
2022-10-11T16:42:23.241Z,15.48
2022-10-11T16:44:50.501Z,16.20
2022-10-11T16:47:18.681Z,16.20
2022-10-11T16:49:46.258Z,15.98
2022-10-11T16:52:14.185Z,35.78
2022-10-11T16:54:46.233Z,36.10
2022-10-11T16:57:15.559Z,24.35
2022-10-11T16:59:43.013Z,14.25
2022-10-11T17:02:18.591Z,14.18
2022-10-11T17:04:46.406Z,10.70
2022-10-11T17:07:13.595Z,9.82
2022-10-11T17:09:44.028Z,8.93
2022-10-11T17:12:13.710Z,8.90
2022-10-11T17:14:41.309Z,8.13
2022-10-11T17:17:09.965Z,8.00
2022-10-11T17:19:45.103Z,8.07
2022-10-11T17:22:16.557Z,7.57
2022-10-11T17:24:44.430Z,7.37
2022-10-11T17:27:11.590Z,7.22
2022-10-11T17:29:38.647Z,7.07
2022-10-11T17:32:06.132Z,6.18
2022-10-11T17:34:35.709Z,6.65
2022-10-11T17:37:02.970Z,7.68
2022-10-11T17:39:30.836Z,7.28
2022-10-11T17:41:57.901Z,7.07
2022-10-11T17:44:24.948Z,6.62
2022-10-11T17:46:52.488Z,7.05
2022-10-11T17:49:19.539Z,6.40
2022-10-11T17:51:46.572Z,6.62
2022-10-11T17:54:14.295Z,6.62
2022-10-11T17:56:41.909Z,7.15
2022-10-11T17:59:18.197Z,7.32
2022-10-11T18:01:45.476Z,6.78
2022-10-11T18:04:16.733Z,7.30
2022-10-11T18:06:45.930Z,7.70
2022-10-11T18:09:15.150Z,8.40
2022-10-11T18:11:42.567Z,8.23
2022-10-11T18:14:09.624Z,7.43
2022-10-11T18:16:37.542Z,7.93
2022-10-11T18:19:07.155Z,7.07
2022-10-11T18:21:35.193Z,7.47
2022-10-11T18:24:05.708Z,7.62
2022-10-11T18:26:32.763Z,7.68
2022-10-11T18:29:00.225Z,7.95
2022-10-11T18:31:29.486Z,9.02
2022-10-11T18:33:57.045Z,8.05
2022-10-11T18:36:26.767Z,9.18
2022-10-11T18:39:04.885Z,9.00
2022-10-11T18:41:32.765Z,9.52
2022-10-11T18:44:02.226Z,9.63
2022-10-11T18:46:29.793Z,8.48
2022-10-11T18:48:58.267Z,8.60
2022-10-11T18:51:36.453Z,8.45
2022-10-11T18:54:04.318Z,8.40
2022-10-11T18:56:32.291Z,9.02
2022-10-11T18:59:00.198Z,9.05
2022-10-11T19:01:32.360Z,10.18
2022-10-11T19:04:01.408Z,9.73
2022-10-11T19:06:40.476Z,9.98
2022-10-11T19:09:17.796Z,8.38
2022-10-11T19:11:44.939Z,8.20
2022-10-11T19:14:16.791Z,8.15
2022-10-11T19:16:49.076Z,8.65
2022-10-11T19:19:17.847Z,9.50
2022-10-11T19:21:49.000Z,8.20
2022-10-11T19:24:17.770Z,9.63
2022-10-11T19:26:45.035Z,8.63
2022-10-11T19:29:20.552Z,9.07
2022-10-11T19:31:53.148Z,8.65
2022-10-11T19:34:20.978Z,8.95
2022-10-11T19:36:50.759Z,8.65
2022-10-11T19:39:21.733Z,8.85
2022-10-11T19:41:49.033Z,9.10
2022-10-11T19:44:16.407Z,9.02
2022-10-11T19:46:51.387Z,8.82
2022-10-11T19:49:22.641Z,10.05
2022-10-11T19:51:49.745Z,10.50
2022-10-11T19:54:17.133Z,10.00
2022-10-11T19:56:44.798Z,9.93
2022-10-11T19:59:12.713Z,11.65
2022-10-11T20:01:40.272Z,10.63
2022-10-11T20:04:15.421Z,11.00
2022-10-11T20:06:49.854Z,10.07
2022-10-11T20:09:29.184Z,10.50
2022-10-11T20:11:57.173Z,10.52
2022-10-11T20:14:24.495Z,10.15
2022-10-11T20:16:51.533Z,10.63
2022-10-11T20:19:18.832Z,10.07
2022-10-11T20:21:46.447Z,8.60
2022-10-11T20:24:13.421Z,9.30
2022-10-11T20:26:40.423Z,9.38
2022-10-11T20:29:07.767Z,9.52
2022-10-11T20:31:38.167Z,9.13
2022-10-11T20:34:07.382Z,10.60
2022-10-11T20:36:36.028Z,10.15
2022-10-11T20:39:04.662Z,9.57
2022-10-11T20:41:36.872Z,10.15
2022-10-11T20:44:04.639Z,11.45
2022-10-11T20:46:37.678Z,10.43
2022-10-11T20:49:07.049Z,11.10
2022-10-11T20:51:35.842Z,10.68
2022-10-11T20:54:04.191Z,10.93
2022-10-11T20:56:32.039Z,12.05
2022-10-11T20:58:59.618Z,12.25
2022-10-11T21:01:30.478Z,12.57
2022-10-11T21:03:59.090Z,11.27
2022-10-11T21:06:27.085Z,11.38
2022-10-11T21:08:59.037Z,11.68
2022-10-11T21:11:27.657Z,12.10
2022-10-11T21:13:58.753Z,13.13
2022-10-11T21:16:26.030Z,13.77
2022-10-11T21:18:55.250Z,12.93
2022-10-11T21:21:24.046Z,12.52
2022-10-11T21:23:55.448Z,13.20
2022-10-11T21:26:22.928Z,12.65
2022-10-11T21:28:50.375Z,12.43
2022-10-11T21:31:18.893Z,12.02
2022-10-11T21:33:46.235Z,11.57
2022-10-11T21:36:15.995Z,10.93
2022-10-11T21:38:43.510Z,10.60
2022-10-11T21:41:13.554Z,10.73
2022-10-11T21:43:40.610Z,10.57
2022-10-11T21:46:21.238Z,11.27
2022-10-11T21:48:52.019Z,11.52
2022-10-11T21:51:23.151Z,11.60
2022-10-11T21:53:50.938Z,11.65
2022-10-11T21:56:18.263Z,13.90
2022-10-11T21:58:48.769Z,12.85
2022-10-11T22:01:17.226Z,14.25
2022-10-11T22:03:45.088Z,13.20
2022-10-11T22:06:12.287Z,13.90
2022-10-11T22:08:39.754Z,12.98
2022-10-11T22:11:08.682Z,12.50
2022-10-11T22:13:35.910Z,12.45
2022-10-11T22:16:07.672Z,12.75
2022-10-11T22:18:35.194Z,12.98
2022-10-11T22:21:13.744Z,13.05
2022-10-11T22:23:42.330Z,13.88
2022-10-11T22:26:18.429Z,14.27
2022-10-11T22:28:48.841Z,13.07
2022-10-11T22:31:17.330Z,12.32
2022-10-11T22:36:13.838Z,12.98
2022-10-11T22:38:42.347Z,13.02
2022-10-11T22:41:10.113Z,14.48
2022-10-11T22:43:37.832Z,13.82
2022-10-11T22:46:05.546Z,13.65
2022-10-11T22:48:32.524Z,15.02
2022-10-11T22:51:00.099Z,14.43
2022-10-11T22:53:27.179Z,14.52
2022-10-11T22:55:54.227Z,14.70
2022-10-11T22:58:21.538Z,14.60
2022-10-11T23:00:48.537Z,15.05
2022-10-11T23:03:17.061Z,15.55
2022-10-11T23:05:44.361Z,13.23
2022-10-11T23:08:11.501Z,13.30
2022-10-11T23:10:39.625Z,14.23
2022-10-11T23:13:06.986Z,14.55
2022-10-11T23:15:33.973Z,14.05
2022-10-11T23:18:03.666Z,12.93
2022-10-11T23:20:30.944Z,13.38
2022-10-11T23:22:57.931Z,13.15
2022-10-11T23:25:25.000Z,13.35
2022-10-11T23:27:52.371Z,12.75
2022-10-11T23:30:19.395Z,13.40
2022-10-11T23:32:46.401Z,15.30
2022-10-11T23:35:13.767Z,14.80
2022-10-11T23:37:40.982Z,15.18
2022-10-11T23:40:08.657Z,15.15
2022-10-11T23:42:35.942Z,15.43
2022-10-11T23:45:03.378Z,14.60
2022-10-11T23:47:30.434Z,13.32
2022-10-11T23:49:57.721Z,13.98
2022-10-11T23:52:24.717Z,14.02
2022-10-11T23:54:51.685Z,13.77
2022-10-11T23:57:18.997Z,13.68
2022-10-11T23:59:46.583Z,13.62
